Decoded Metar for LRBS (BUCHAREST in ROMANIA) (IATA:BBU) | Meteo·Mobile Aviation Weather
aviador You're here:

LRBS Decoded Metar

BUCHAREST in ROMANIA
Report Time2018-09-23 13:30:00
UTC Time2018-09-23 13:50:41
Flight Rules vfr VFR
Wind060° at 06 kt
W.Decomp.*RWY 07: 5.8 kt HW 1.5 kt LCW
W.Rank060° ranks 2
Current wind is below 060° avg. (7.5)
Visibility9999 m
Phenomena:N/A
Clouds:N/A
Expected CloudBase > 6,000 ft AGL from Temp-Dew spread
CeilingNone
Temp24°C (ISA +10)
Dew Point09°C (39% RH)
AAT21.7°C
QNH1019 hPa
Density Alt1,368 ft
Elevation299 ft
Report Wrong Elevation
Raw Report
LRBS 231330Z 06006KT 010V110 CAVOK 24/09 Q1019 NOSIG=

Extra information for LRBS:More info

Metar Taf Metar & Taf Last 4 Metars F.Rules Stats Wind Profile Meteogram Temp Stats Airport Information Weather charts Add Link Nearby VenuesMetar ALERT Operation Metar Decoded Social comments